Time;durP1;ratioP1;P1;durP2;ratioP2;P2;SDS_P1;SDS_P2;PMS_P1;PMS_P2;Temp;Humidity;BMP_temperature;BMP_pressure;BME280_temperature;BME280_humidity;BME280_pressure;Samples;Min_cycle;Max_cycle;Signal;HPM_P1;HPM_P2
2021/11/15 00:00:14;;;;;;;60.55;28.00;;;10.00;93.70;;;;;;5071155;28;20527;-61
2021/11/15 00:02:41;;;;;;;64.22;29.40;;;9.60;93.20;;;;;;5059939;28;20058;-61
2021/11/15 00:05:09;;;;;;;63.15;29.25;;;9.30;93.10;;;;;;5059792;28;20101;-61
2021/11/15 00:07:35;;;;;;;51.20;24.73;;;9.10;93.60;;;;;;5069572;28;20098;-62
2021/11/15 00:10:02;;;;;;;59.67;27.88;;;9.10;94.90;;;;;;5069009;28;20662;-61
2021/11/15 00:12:27;;;;;;;69.72;28.80;;;9.20;95.00;;;;;;5058275;28;20040;-61
2021/11/15 00:14:53;;;;;;;64.03;29.20;;;9.20;94.70;;;;;;5068089;28;20036;-62
2021/11/15 00:17:19;;;;;;;68.25;32.47;;;9.10;94.50;;;;;;5050494;28;20047;-61
2021/11/15 00:19:45;;;;;;;74.45;32.97;;;8.90;94.20;;;;;;5069566;28;21343;-61
2021/11/15 00:22:10;;;;;;;64.88;30.92;;;8.80;94.50;;;;;;5070365;28;20040;-61
2021/11/15 00:24:36;;;;;;;69.45;30.75;;;8.60;94.60;;;;;;5085479;28;20051;-63
2021/11/15 00:27:03;;;;;;;78.32;33.08;;;8.60;94.80;;;;;;5071438;28;20102;-61
2021/11/15 00:29:29;;;;;;;67.85;29.98;;;8.70;95.50;;;;;;5071005;28;21919;-67
2021/11/15 00:31:55;;;;;;;70.75;32.28;;;8.70;95.30;;;;;;5068122;28;20040;-66
2021/11/15 00:34:21;;;;;;;69.68;31.65;;;8.80;95.60;;;;;;5070020;28;20024;-67
2021/11/15 00:36:46;;;;;;;75.55;32.67;;;8.80;95.30;;;;;;5043080;28;20064;-66
2021/11/15 00:39:12;;;;;;;68.95;30.02;;;8.80;95.30;;;;;;5068996;28;20131;-67
2021/11/15 00:41:38;;;;;;;66.90;31.20;;;8.80;95.30;;;;;;5068949;28;20040;-67
2021/11/15 00:44:04;;;;;;;52.35;25.60;;;8.80;95.10;;;;;;5057858;28;20059;-67
2021/11/15 00:46:30;;;;;;;63.40;30.40;;;8.80;95.50;;;;;;5057137;28;20123;-66
2021/11/15 00:48:56;;;;;;;73.60;34.25;;;8.90;96.30;;;;;;5067448;28;20714;-66
2021/11/15 00:51:23;;;;;;;72.57;30.67;;;8.90;95.40;;;;;;5071246;28;20117;-68
2021/11/15 00:53:49;;;;;;;67.57;27.35;;;8.90;95.20;;;;;;5069956;28;20052;-67
2021/11/15 00:56:15;;;;;;;55.17;23.95;;;8.90;95.70;;;;;;5069302;28;20051;-68
2021/11/15 00:58:41;;;;;;;45.72;22.67;;;9.20;96.20;;;;;;5068553;28;20400;-66
2021/11/15 01:01:07;;;;;;;64.43;28.75;;;9.60;96.60;;;;;;5070848;28;20403;-67
2021/11/15 01:03:32;;;;;;;52.00;24.38;;;9.80;96.40;;;;;;5069114;28;20045;-67
2021/11/15 01:06:00;;;;;;;56.90;25.42;;;9.70;95.60;;;;;;5069728;28;20051;-68
2021/11/15 01:08:26;;;;;;;55.25;26.73;;;9.60;95.80;;;;;;5085982;28;20047;-68
2021/11/15 01:10:53;;;;;;;57.33;27.02;;;9.70;95.80;;;;;;5068853;28;20043;-68
2021/11/15 01:13:23;;;;;;;66.47;28.38;;;9.70;95.60;;;;;;5070802;28;20101;-68
2021/11/15 01:15:49;;;;;;;52.60;23.90;;;9.60;95.10;;;;;;5058423;28;20392;-67
2021/11/15 01:18:15;;;;;;;48.53;22.15;;;9.50;95.20;;;;;;5068217;28;20040;-68
2021/11/15 01:20:41;;;;;;;62.00;27.02;;;9.60;96.00;;;;;;5069449;28;20059;-67
2021/11/15 01:23:07;;;;;;;62.38;27.30;;;9.70;96.00;;;;;;5085197;28;20090;-68
2021/11/15 01:25:36;;;;;;;64.55;28.48;;;9.60;94.80;;;;;;5069591;28;20037;-67
2021/11/15 01:28:02;;;;;;;64.28;26.33;;;9.30;94.50;;;;;;5057537;28;20059;-67
2021/11/15 01:30:28;;;;;;;65.03;25.88;;;9.00;94.70;;;;;;5067399;28;20409;-67
2021/11/15 01:32:54;;;;;;;57.00;23.67;;;8.80;94.90;;;;;;5069044;28;20174;-66
2021/11/15 01:35:21;;;;;;;41.30;19.83;;;8.70;95.30;;;;;;5059768;28;20522;-68
2021/11/15 01:37:47;;;;;;;39.10;18.73;;;8.80;95.60;;;;;;5069240;28;20040;-66
2021/11/15 01:40:16;;;;;;;48.25;21.63;;;9.00;96.60;;;;;;5085287;28;22314;-60
2021/11/15 01:42:42;;;;;;;50.30;21.45;;;9.20;97.20;;;;;;5068267;28;20072;-60
2021/11/15 01:45:09;;;;;;;60.10;25.92;;;9.30;96.70;;;;;;5068799;28;20048;-61
2021/11/15 01:47:36;;;;;;;62.67;24.83;;;9.40;96.00;;;;;;5084189;28;20495;-61
2021/11/15 01:50:03;;;;;;;42.53;19.65;;;9.30;94.90;;;;;;5068113;28;20028;-61
2021/11/15 01:52:28;;;;;;;45.05;19.90;;;9.00;95.20;;;;;;5058116;28;20071;-60
2021/11/15 01:54:54;;;;;;;43.00;18.27;;;8.90;96.50;;;;;;5087592;28;20389;-60
2021/11/15 01:57:20;;;;;;;55.42;21.00;;;8.90;97.00;;;;;;5069360;28;20032;-61
2021/11/15 01:59:47;;;;;;;43.25;19.15;;;9.20;97.70;;;;;;5073462;28;20050;-60
2021/11/15 02:02:13;;;;;;;56.10;24.35;;;9.60;97.50;;;;;;5073703;28;20052;-60
2021/11/15 02:04:39;;;;;;;64.70;24.92;;;9.60;96.60;;;;;;5060918;28;20039;-61
2021/11/15 02:07:05;;;;;;;53.28;24.75;;;9.30;95.30;;;;;;5086902;28;20487;-61
2021/11/15 02:09:30;;;;;;;66.00;25.92;;;9.00;95.00;;;;;;5073151;28;20041;-60
2021/11/15 02:12:00;;;;;;;58.45;23.92;;;8.70;95.20;;;;;;5074050;28;20055;-60
2021/11/15 02:14:25;;;;;;;54.30;23.00;;;8.50;95.40;;;;;;5072031;28;20134;-60
2021/11/15 02:16:51;;;;;;;53.65;22.80;;;8.40;96.00;;;;;;5073418;28;20165;-61
2021/11/15 02:19:17;;;;;;;60.08;25.00;;;8.40;96.30;;;;;;5071397;28;20048;-60
2021/11/15 02:21:43;;;;;;;62.85;24.45;;;8.50;96.60;;;;;;5073053;28;20045;-61
2021/11/15 02:24:11;;;;;;;52.17;22.67;;;8.40;96.20;;;;;;5072133;28;20428;-60
2021/11/15 02:26:36;;;;;;;60.10;21.77;;;8.40;96.00;;;;;;5072867;28;20047;-60
2021/11/15 02:29:02;;;;;;;53.60;21.60;;;8.30;96.10;;;;;;5072809;28;20106;-61
2021/11/15 02:31:28;;;;;;;53.17;20.50;;;8.20;96.10;;;;;;5072754;28;20024;-60
2021/11/15 02:33:57;;;;;;;53.60;23.10;;;8.10;96.40;;;;;;5073015;28;20029;-60
2021/11/15 02:36:24;;;;;;;55.67;20.52;;;8.10;96.50;;;;;;5072249;28;20055;-60
2021/11/15 02:38:53;;;;;;;53.50;22.33;;;8.20;96.60;;;;;;5071600;28;20037;-61
2021/11/15 02:41:22;;;;;;;48.70;21.20;;;8.30;96.70;;;;;;5071094;28;20492;-61
2021/11/15 02:43:48;;;;;;;48.38;20.83;;;8.30;96.40;;;;;;5061403;28;20040;-60
2021/11/15 02:46:14;;;;;;;48.88;21.05;;;8.20;96.00;;;;;;5087681;28;20407;-61
2021/11/15 02:48:41;;;;;;;34.95;15.93;;;8.10;96.10;;;;;;5071008;28;20036;-66
2021/11/15 02:51:07;;;;;;;51.05;20.70;;;7.90;96.40;;;;;;5072108;28;20068;-66
2021/11/15 02:53:33;;;;;;;50.50;21.30;;;8.00;97.40;;;;;;5072129;28;20035;-66
2021/11/15 02:55:59;;;;;;;50.00;21.05;;;8.00;97.10;;;;;;5060987;28;20037;-66
2021/11/15 02:58:25;;;;;;;46.10;19.98;;;8.10;97.10;;;;;;5086367;28;20056;-66
2021/11/15 03:01:04;;;;;;;43.28;16.20;;;8.30;96.90;;;;;;5046780;28;20071;-66
2021/11/15 03:03:30;;;;;;;36.20;16.52;;;8.40;97.20;;;;;;5062083;28;20086;-65
2021/11/15 03:05:56;;;;;;;39.58;17.52;;;8.50;97.50;;;;;;5086751;28;20088;-67
2021/11/15 03:08:24;;;;;;;49.45;21.17;;;8.80;97.60;;;;;;5058431;28;20097;-66
2021/11/15 03:10:54;;;;;;;62.35;23.13;;;8.80;96.70;;;;;;5071769;28;20032;-67
2021/11/15 03:13:20;;;;;;;61.75;23.05;;;8.60;96.10;;;;;;5073502;28;20066;-66
2021/11/15 03:15:49;;;;;;;59.70;25.88;;;8.40;96.20;;;;;;5055101;28;20053;-65
2021/11/15 03:18:17;;;;;;;61.90;23.40;;;8.20;96.50;;;;;;5060879;28;20040;-66
2021/11/15 03:20:50;;;;;;;66.53;23.40;;;8.10;96.70;;;;;;5070953;28;20044;-66
2021/11/15 03:23:20;;;;;;;59.38;23.02;;;8.00;96.90;;;;;;5044553;28;20049;-67
2021/11/15 03:25:47;;;;;;;62.90;23.83;;;7.90;97.00;;;;;;5054457;28;20062;-66
2021/11/15 03:28:15;;;;;;;54.13;20.85;;;7.90;97.10;;;;;;5070402;28;20047;-67
2021/11/15 03:30:42;;;;;;;64.20;23.08;;;7.80;97.20;;;;;;5072098;28;20029;-66
2021/11/15 03:33:09;;;;;;;53.30;21.60;;;7.80;97.20;;;;;;5072128;28;20040;-66
2021/11/15 03:35:35;;;;;;;59.58;23.27;;;7.80;97.40;;;;;;5069546;28;20480;-67
2021/11/15 03:38:01;;;;;;;59.60;22.35;;;7.80;97.70;;;;;;5072373;28;20070;-67
2021/11/15 03:40:28;;;;;;;53.47;21.05;;;7.80;97.50;;;;;;5072339;28;20040;-67
2021/11/15 03:42:57;;;;;;;61.15;21.67;;;7.80;97.40;;;;;;5069818;28;20628;-66
2021/11/15 03:45:24;;;;;;;59.55;23.33;;;7.80;97.30;;;;;;5087728;28;20044;-66
2021/11/15 03:47:50;;;;;;;59.35;23.00;;;7.70;97.40;;;;;;5072626;28;20518;-66
2021/11/15 03:50:16;;;;;;;51.13;19.92;;;7.70;97.50;;;;;;5060050;28;20032;-66
2021/11/15 03:52:44;;;;;;;53.55;21.10;;;7.70;97.30;;;;;;5071086;28;20056;-67
2021/11/15 03:55:12;;;;;;;52.28;21.58;;;7.60;97.20;;;;;;5070938;28;20404;-65
2021/11/15 03:57:38;;;;;;;59.50;24.23;;;7.60;97.30;;;;;;5070199;28;20043;-66
2021/11/15 04:00:07;;;;;;;61.70;23.73;;;7.60;97.40;;;;;;5071778;28;20519;-65
2021/11/15 04:02:34;;;;;;;58.60;23.27;;;7.70;97.80;;;;;;5085721;28;20047;-66
2021/11/15 04:05:04;;;;;;;62.00;23.63;;;7.90;97.90;;;;;;5071651;28;20036;-66
2021/11/15 04:07:40;;;;;;;53.17;22.33;;;8.00;97.80;;;;;;5051341;28;20107;-60
2021/11/15 04:10:13;;;;;;;61.42;22.95;;;8.00;97.30;;;;;;5069924;28;20040;-60
2021/11/15 04:12:40;;;;;;;59.00;23.67;;;7.90;97.20;;;;;;5070307;28;20115;-60
2021/11/15 04:15:08;;;;;;;60.72;22.70;;;7.80;97.30;;;;;;5068835;28;20155;-60
2021/11/15 04:17:34;;;;;;;53.33;22.55;;;7.70;97.40;;;;;;5086055;28;20439;-60
2021/11/15 04:20:00;;;;;;;60.92;21.98;;;7.70;97.40;;;;;;5070953;28;20043;-60
2021/11/15 04:22:25;;;;;;;64.30;25.45;;;7.60;97.30;;;;;;5071242;28;20945;-68
2021/11/15 04:24:51;;;;;;;61.55;24.17;;;7.60;97.60;;;;;;5070853;28;20163;-60
2021/11/15 04:27:17;;;;;;;61.50;23.00;;;7.50;97.70;;;;;;5059997;28;20702;-60
2021/11/15 04:29:43;;;;;;;56.47;22.60;;;7.40;97.80;;;;;;5070341;28;20064;-60
2021/11/15 04:32:10;;;;;;;43.88;18.75;;;7.40;97.90;;;;;;5071265;28;20032;-60
2021/11/15 04:34:36;;;;;;;42.65;18.30;;;7.60;98.40;;;;;;5068482;28;20037;-60
2021/11/15 04:37:02;;;;;;;39.15;16.48;;;8.20;98.80;;;;;;5069506;28;20607;-61
2021/11/15 04:39:29;;;;;;;39.55;16.77;;;8.50;98.10;;;;;;5069649;28;20045;-60
2021/11/15 04:41:54;;;;;;;32.60;14.48;;;8.50;97.50;;;;;;5068703;28;20036;-60
2021/11/15 04:44:20;;;;;;;41.58;18.23;;;8.40;97.30;;;;;;5070556;28;20555;-60
2021/11/15 04:46:46;;;;;;;43.20;18.88;;;8.50;97.50;;;;;;5068451;28;20037;-61
2021/11/15 04:49:12;;;;;;;43.17;18.17;;;8.60;97.50;;;;;;5070002;28;20045;-65
2021/11/15 04:51:37;;;;;;;48.70;20.45;;;8.50;97.10;;;;;;5071476;28;20039;-66
2021/11/15 04:54:04;;;;;;;44.33;18.83;;;8.40;96.90;;;;;;5085574;28;20041;-66
2021/11/15 04:56:31;;;;;;;45.88;19.80;;;8.20;96.80;;;;;;5062919;28;20068;-65
2021/11/15 04:58:57;;;;;;;25.77;13.38;;;8.40;97.50;;;;;;5068117;28;20700;-65
2021/11/15 05:01:23;;;;;;;45.45;19.67;;;8.60;97.40;;;;;;5069306;28;20055;-66
2021/11/15 05:03:49;;;;;;;53.45;22.52;;;8.80;98.00;;;;;;5067912;28;20044;-67
2021/11/15 05:06:14;;;;;;;57.38;25.05;;;8.80;97.20;;;;;;5068517;28;20040;-67
2021/11/15 05:08:40;;;;;;;60.28;25.58;;;8.60;96.70;;;;;;5085469;28;20045;-67
2021/11/15 05:11:06;;;;;;;62.75;25.95;;;8.30;96.90;;;;;;5067020;28;20072;-66
2021/11/15 05:13:31;;;;;;;67.72;24.75;;;8.20;97.00;;;;;;5083926;28;20029;-67
2021/11/15 05:15:57;;;;;;;57.45;25.65;;;7.90;97.20;;;;;;5067608;28;20063;-67
2021/11/15 05:18:23;;;;;;;67.03;26.83;;;7.80;97.30;;;;;;5084412;28;20040;-67
2021/11/15 05:20:49;;;;;;;73.55;28.25;;;7.70;97.50;;;;;;5084461;28;20040;-67
2021/11/15 05:23:15;;;;;;;67.72;28.05;;;7.70;97.70;;;;;;5086661;28;20657;-67
2021/11/15 05:25:42;;;;;;;69.88;29.00;;;7.60;97.80;;;;;;5057076;28;20127;-66
2021/11/15 05:28:09;;;;;;;62.30;28.20;;;7.60;97.90;;;;;;5040040;28;20522;-67
2021/11/15 05:30:35;;;;;;;72.65;31.35;;;7.50;98.00;;;;;;5050466;28;20040;-73
2021/11/15 05:33:02;;;;;;;76.32;32.35;;;7.50;98.00;;;;;;5067034;28;20041;-73
2021/11/15 05:35:28;;;;;;;79.20;32.15;;;7.50;98.00;;;;;;5068082;28;20496;-73
2021/11/15 05:37:55;;;;;;;69.75;30.45;;;7.50;98.10;;;;;;5068364;28;20046;-74
2021/11/15 05:40:23;;;;;;;64.72;29.77;;;7.50;97.90;;;;;;5085922;28;20044;-73
2021/11/15 05:42:50;;;;;;;71.88;34.50;;;7.40;98.00;;;;;;5067324;28;20431;-72
2021/11/15 05:45:16;;;;;;;74.13;33.17;;;7.40;98.20;;;;;;5068304;28;20469;-74
2021/11/15 05:47:43;;;;;;;72.10;33.53;;;7.40;98.00;;;;;;5068161;28;20143;-72
2021/11/15 05:50:10;;;;;;;73.95;33.20;;;7.30;98.10;;;;;;5056973;28;20064;-74
2021/11/15 05:52:39;;;;;;;84.63;35.63;;;7.30;98.10;;;;;;5068201;28;20068;-73
2021/11/15 05:55:06;;;;;;;74.65;33.38;;;7.40;98.20;;;;;;5068604;28;20075;-72
2021/11/15 05:57:32;;;;;;;77.45;34.08;;;7.30;98.30;;;;;;5056769;28;20032;-67
2021/11/15 05:59:58;;;;;;;69.07;32.53;;;7.30;98.40;;;;;;5068435;28;20059;-68
2021/11/15 06:02:23;;;;;;;67.38;27.90;;;7.30;98.50;;;;;;5041060;28;20147;-66
2021/11/15 06:04:49;;;;;;;70.47;31.38;;;7.30;98.50;;;;;;5068492;28;20063;-66
2021/11/15 06:07:15;;;;;;;69.13;30.30;;;7.30;98.50;;;;;;5065500;28;20044;-66
2021/11/15 06:09:41;;;;;;;70.68;31.70;;;7.30;98.50;;;;;;5084703;28;20044;-67
2021/11/15 06:12:07;;;;;;;71.00;30.63;;;7.30;98.60;;;;;;5040784;28;20072;-66
2021/11/15 06:14:33;;;;;;;65.45;29.35;;;7.30;98.70;;;;;;5066229;28;20043;-66
2021/11/15 06:16:59;;;;;;;72.07;29.90;;;7.40;98.60;;;;;;5069373;28;20024;-67
2021/11/15 06:19:25;;;;;;;63.88;27.52;;;7.40;98.60;;;;;;5083981;28;20051;-66
2021/11/15 06:21:51;;;;;;;98.30;30.83;;;7.40;98.60;;;;;;5057144;28;20044;-67
2021/11/15 06:24:17;;;;;;;56.00;25.90;;;7.30;98.60;;;;;;5058870;28;20049;-67
2021/11/15 06:26:43;;;;;;;64.10;28.17;;;7.30;98.60;;;;;;5059767;28;20052;-66
2021/11/15 06:29:10;;;;;;;59.63;26.73;;;7.30;98.70;;;;;;5058601;28;20048;-66
2021/11/15 06:31:36;;;;;;;54.63;24.77;;;7.30;98.70;;;;;;5066455;28;20044;-68
2021/11/15 06:34:02;;;;;;;68.47;28.52;;;7.30;98.80;;;;;;5067625;28;20093;-65
2021/11/15 06:36:27;;;;;;;60.75;28.02;;;7.40;98.90;;;;;;5056177;28;20044;-67
2021/11/15 06:38:55;;;;;;;68.63;29.45;;;7.40;98.80;;;;;;5027341;28;20059;-66
2021/11/15 06:41:22;;;;;;;67.28;27.48;;;7.40;98.70;;;;;;5069234;28;20052;-67
2021/11/15 06:43:48;;;;;;;62.13;24.85;;;7.50;98.90;;;;;;5043103;28;20052;-67
2021/11/15 06:46:16;;;;;;;65.63;25.98;;;7.40;98.60;;;;;;5060701;28;20040;-68
2021/11/15 06:48:42;;;;;;;50.47;22.95;;;7.40;98.70;;;;;;5071343;28;20086;-67
2021/11/15 06:51:10;;;;;;;54.28;22.58;;;7.40;98.80;;;;;;5073138;28;20457;-68
2021/11/15 06:53:37;;;;;;;54.70;21.27;;;7.40;98.80;;;;;;5059317;28;20045;-66
2021/11/15 06:56:04;;;;;;;51.05;21.67;;;7.40;99.00;;;;;;5055712;28;20043;-67
2021/11/15 06:58:31;;;;;;;55.33;23.25;;;7.40;98.80;;;;;;5054832;28;20044;-68
2021/11/15 07:00:56;;;;;;;52.35;21.13;;;7.30;98.70;;;;;;5086354;28;20135;-68
2021/11/15 07:03:22;;;;;;;56.30;22.42;;;7.40;98.70;;;;;;5054388;28;20055;-67
2021/11/15 07:05:48;;;;;;;52.30;20.42;;;7.40;98.70;;;;;;5087387;28;20130;-67
2021/11/15 07:08:15;;;;;;;52.00;22.08;;;7.50;98.80;;;;;;5070372;28;20044;-67
2021/11/15 07:10:41;;;;;;;54.67;22.42;;;7.50;98.80;;;;;;5069707;28;20500;-67
2021/11/15 07:13:06;;;;;;;55.17;23.05;;;7.60;98.80;;;;;;5088503;28;20113;-72
2021/11/15 07:15:32;;;;;;;60.13;23.67;;;7.60;98.60;;;;;;5061303;28;20033;-76
2021/11/15 07:17:58;;;;;;;54.58;22.90;;;7.60;98.50;;;;;;5085445;28;20064;-68
2021/11/15 07:20:24;;;;;;;64.13;24.67;;;7.60;98.50;;;;;;5068941;28;20043;-68
2021/11/15 07:22:51;;;;;;;52.08;22.58;;;7.60;98.40;;;;;;5044381;28;20044;-70
2021/11/15 07:25:19;;;;;;;51.97;22.85;;;7.50;98.40;;;;;;5052727;28;20106;-69
2021/11/15 07:27:47;;;;;;;51.10;22.27;;;7.50;98.40;;;;;;5060029;28;20040;-72
2021/11/15 07:30:13;;;;;;;55.20;22.77;;;7.50;98.30;;;;;;5061068;28;20043;-73
2021/11/15 07:32:39;;;;;;;57.85;22.67;;;7.40;98.40;;;;;;5060238;28;21239;-71
2021/11/15 07:35:06;;;;;;;50.58;20.35;;;7.30;98.50;;;;;;5041502;28;20345;-71
2021/11/15 07:37:33;;;;;;;41.08;18.40;;;7.40;98.70;;;;;;5060608;28;20569;-72
2021/11/15 07:39:59;;;;;;;44.50;19.10;;;7.40;98.50;;;;;;5072107;28;20101;-72
2021/11/15 07:42:25;;;;;;;43.28;19.80;;;7.40;98.30;;;;;;5067752;28;20048;-72
2021/11/15 07:44:50;;;;;;;39.72;17.80;;;7.40;98.20;;;;;;5070817;28;20044;-72
2021/11/15 07:47:18;;;;;;;42.92;18.92;;;7.40;98.10;;;;;;5084393;28;20043;-72
2021/11/15 07:49:45;;;;;;;42.38;18.80;;;7.40;98.00;;;;;;5052417;28;20048;-72
2021/11/15 07:52:11;;;;;;;50.78;20.60;;;7.40;98.10;;;;;;5042946;28;20071;-73
2021/11/15 07:54:37;;;;;;;49.70;19.52;;;7.40;98.20;;;;;;5042031;28;20040;-73
2021/11/15 07:57:06;;;;;;;50.83;20.50;;;7.40;98.20;;;;;;5069318;28;20489;-73
2021/11/15 07:59:32;;;;;;;47.80;18.88;;;7.30;98.30;;;;;;5042203;28;20635;-72
2021/11/15 08:01:57;;;;;;;36.75;14.20;;;7.30;98.20;;;;;;5070058;28;20052;-67
2021/11/15 08:04:23;;;;;;;30.52;14.05;;;7.30;98.00;;;;;;5068717;28;20036;-66
2021/11/15 08:06:49;;;;;;;31.65;13.25;;;7.30;97.80;;;;;;5059157;28;20719;-67
2021/11/15 08:09:14;;;;;;;26.80;12.30;;;7.30;97.80;;;;;;5052762;28;20044;-67
2021/11/15 08:11:45;;;;;;;29.35;13.75;;;7.30;97.80;;;;;;5053324;28;20085;-75
2021/11/15 08:14:13;;;;;;;34.03;14.43;;;7.30;97.80;;;;;;5062760;28;20066;-75
2021/11/15 08:16:38;;;;;;;39.70;16.80;;;7.30;97.80;;;;;;5049037;28;20032;-76
2021/11/15 08:19:04;;;;;;;45.40;18.02;;;7.30;97.90;;;;;;5063485;28;20055;-74
2021/11/15 08:21:30;;;;;;;43.47;17.85;;;7.30;98.20;;;;;;5069276;28;20119;-71
2021/11/15 08:24:18;;;;;;;36.50;15.93;;;7.30;98.30;;;;;;5067677;28;20503;-71
2021/11/15 08:26:56;;;;;;;37.40;16.50;;;7.30;98.20;;;;;;5087109;28;20046;-71
2021/11/15 08:29:25;;;;;;;36.65;17.05;;;7.30;98.40;;;;;;5069431;28;20193;-73
2021/11/15 08:31:53;;;;;;;39.45;16.42;;;7.30;98.50;;;;;;5070951;28;20496;-71
2021/11/15 08:34:20;;;;;;;38.45;15.73;;;7.20;98.60;;;;;;5071335;28;20492;-70
2021/11/15 08:36:47;;;;;;;40.63;18.50;;;7.20;98.60;;;;;;5064867;28;20044;-70
2021/11/15 08:39:17;;;;;;;36.00;16.25;;;7.30;98.60;;;;;;5066806;28;20050;-71
2021/11/15 08:41:47;;;;;;;35.30;16.40;;;7.30;98.30;;;;;;5042969;28;20052;-68
2021/11/15 08:44:17;;;;;;;42.22;20.20;;;7.20;98.40;;;;;;5066154;28;20044;-69
2021/11/15 08:46:45;;;;;;;43.30;19.67;;;7.10;98.50;;;;;;5068452;28;20683;-66
2021/11/15 08:49:12;;;;;;;39.20;18.23;;;7.10;98.60;;;;;;5085414;28;20059;-64
2021/11/15 08:51:39;;;;;;;41.28;18.75;;;7.20;98.50;;;;;;5060480;28;20045;-68
2021/11/15 08:54:08;;;;;;;39.10;18.42;;;7.20;98.50;;;;;;5056960;28;20055;-68
2021/11/15 08:56:37;;;;;;;43.53;19.65;;;7.20;98.50;;;;;;5069607;28;20040;-68
2021/11/15 08:59:02;;;;;;;38.97;19.20;;;7.20;98.60;;;;;;5056907;28;20102;-68
2021/11/15 09:01:28;;;;;;;39.17;17.45;;;7.20;98.80;;;;;;5067791;28;20044;-69
2021/11/15 09:03:55;;;;;;;34.25;15.57;;;7.20;98.80;;;;;;5069342;28;20443;-69
2021/11/15 09:06:22;;;;;;;34.90;17.38;;;7.20;98.70;;;;;;5058272;28;20055;-71
2021/11/15 09:08:49;;;;;;;32.63;16.67;;;7.20;98.70;;;;;;5056203;28;20040;-72
2021/11/15 09:11:16;;;;;;;34.13;15.73;;;7.20;98.50;;;;;;5085506;28;20126;-65
2021/11/15 09:13:44;;;;;;;29.20;12.40;;;7.20;98.60;;;;;;5069048;28;20455;-63
2021/11/15 09:16:11;;;;;;;28.33;14.10;;;7.10;98.60;;;;;;5069805;28;20127;-64
2021/11/15 09:18:38;;;;;;;27.50;14.02;;;7.10;98.60;;;;;;5057854;28;20043;-63
2021/11/15 09:21:10;;;;;;;27.08;11.77;;;7.10;98.60;;;;;;5067129;28;20489;-62
2021/11/15 09:23:39;;;;;;;26.23;12.15;;;7.10;98.60;;;;;;5068519;28;20051;-63
2021/11/15 09:26:05;;;;;;;25.73;12.77;;;7.00;98.60;;;;;;5053832;28;20067;-64
2021/11/15 09:28:31;;;;;;;23.75;11.85;;;7.00;98.60;;;;;;5066372;28;20488;-64
2021/11/15 09:30:57;;;;;;;29.13;13.02;;;7.00;98.60;;;;;;5066799;28;20047;-65
2021/11/15 09:33:23;;;;;;;24.08;11.40;;;7.00;98.60;;;;;;5057079;28;20047;-68
2021/11/15 09:35:49;;;;;;;22.95;11.30;;;7.10;98.70;;;;;;5068845;28;20033;-66
2021/11/15 09:38:19;;;;;;;20.63;9.95;;;7.00;98.70;;;;;;5051149;28;20036;-62
2021/11/15 09:40:50;;;;;;;21.55;10.65;;;7.10;98.60;;;;;;5083087;28;20109;-62
2021/11/15 09:43:17;;;;;;;26.55;11.43;;;7.10;98.60;;;;;;5069737;28;20074;-61
2021/11/15 09:45:44;;;;;;;24.15;10.85;;;7.10;98.80;;;;;;5066901;28;20554;-61
2021/11/15 09:48:11;;;;;;;26.25;10.93;;;7.10;98.80;;;;;;5068992;28;20135;-61
2021/11/15 09:50:37;;;;;;;31.58;12.15;;;7.10;98.70;;;;;;5069880;28;20405;-62
2021/11/15 09:53:05;;;;;;;33.83;13.90;;;7.10;98.60;;;;;;5066577;28;20516;-62
2021/11/15 09:55:32;;;;;;;31.15;12.93;;;7.10;98.70;;;;;;5066266;28;20055;-62
2021/11/15 09:57:59;;;;;;;29.20;13.23;;;7.10;98.70;;;;;;5068408;28;20039;-59
2021/11/15 10:00:27;;;;;;;31.80;12.52;;;7.10;98.60;;;;;;5069489;28;20075;-60
2021/11/15 10:03:00;;;;;;;34.67;13.45;;;7.10;98.70;;;;;;5067480;28;20050;-59
2021/11/15 10:05:26;;;;;;;27.20;13.13;;;7.10;98.70;;;;;;5065280;28;20047;-56
2021/11/15 10:07:57;;;;;;;34.30;13.52;;;7.10;98.80;;;;;;5066600;28;20048;-57
2021/11/15 10:10:38;;;;;;;281.88;41.03;;;7.10;98.60;;;;;;5050308;28;20079;-58
2021/11/15 10:13:20;;;;;;;31.13;14.07;;;7.10;98.60;;;;;;5069342;28;20055;-59
2021/11/15 10:15:57;;;;;;;30.30;12.45;;;7.10;98.80;;;;;;5058567;28;21156;-58
2021/11/15 10:18:54;;;;;;;40.53;13.95;;;7.10;98.70;;;;;;5068722;28;20090;-58
2021/11/15 10:21:50;;;;;;;37.53;14.88;;;7.00;98.60;;;;;;5073092;28;20043;-59
2021/11/15 10:24:30;;;;;;;38.22;14.55;;;7.00;98.50;;;;;;5063403;28;20056;-65
2021/11/15 10:27:01;;;;;;;35.08;14.90;;;7.00;98.50;;;;;;5087246;28;20043;-58
2021/11/15 10:29:41;;;;;;;40.53;17.23;;;6.90;98.40;;;;;;5072065;28;20044;-58
2021/11/15 10:32:15;;;;;;;32.92;15.00;;;6.90;98.40;;;;;;5071206;28;20128;-58
2021/11/15 10:34:51;;;;;;;38.70;16.23;;;7.00;98.40;;;;;;5070832;28;20033;-58
2021/11/15 10:37:31;;;;;;;31.73;12.77;;;7.00;98.10;;;;;;5070277;28;20036;-58
2021/11/15 10:40:03;;;;;;;22.52;10.80;;;7.10;98.60;;;;;;5071796;28;20044;-58
2021/11/15 10:42:30;;;;;;;32.45;15.15;;;7.40;98.80;;;;;;5072520;28;20043;-59
2021/11/15 10:45:07;;;;;;;25.90;11.57;;;7.80;98.80;;;;;;5072916;28;20049;-58
2021/11/15 10:47:35;;;;;;;43.00;18.27;;;8.20;98.70;;;;;;5074444;28;20028;-58
2021/11/15 10:50:19;;;;;;;51.00;20.75;;;8.70;98.40;;;;;;5071965;28;20039;-58
2021/11/15 10:53:08;;;;;;;35.05;16.40;;;9.00;97.30;;;;;;5070742;28;20089;-58
2021/11/15 10:55:49;;;;;;;35.47;16.05;;;8.80;96.70;;;;;;5074250;28;20035;-58
2021/11/15 10:58:22;;;;;;;58.85;24.80;;;8.80;96.90;;;;;;5071200;28;20055;-58
2021/11/15 11:01:00;;;;;;;68.90;27.88;;;8.90;96.60;;;;;;5072482;28;20055;-65
2021/11/15 11:03:28;;;;;;;64.85;27.45;;;8.50;95.20;;;;;;5069464;28;20043;-65
2021/11/15 11:05:57;;;;;;;68.70;28.88;;;8.10;95.20;;;;;;5071429;28;20033;-61
2021/11/15 11:08:24;;;;;;;69.25;30.67;;;7.80;95.50;;;;;;5069828;28;20047;-61
2021/11/15 11:11:10;;;;;;;68.90;28.92;;;7.70;95.60;;;;;;5072979;28;20923;-61
2021/11/15 11:13:39;;;;;;;64.20;27.40;;;7.50;95.70;;;;;;5070576;28;20033;-59
2021/11/15 11:16:05;;;;;;;75.07;29.52;;;7.30;96.00;;;;;;5072642;28;20488;-59
2021/11/15 11:18:38;;;;;;;67.88;30.17;;;7.30;96.10;;;;;;5070357;28;20028;-60
2021/11/15 11:24:11;;;;;;;62.63;26.20;;;7.10;95.90;;;;;;5070278;28;20053;-59
2021/11/15 11:26:36;;;;;;;71.55;27.40;;;7.10;96.10;;;;;;5071147;28;20040;-60
2021/11/15 11:29:12;;;;;;;72.80;31.23;;;6.90;96.20;;;;;;5051220;28;20048;-60
2021/11/15 11:31:40;;;;;;;73.50;30.73;;;7.00;96.30;;;;;;5055089;28;20074;-60
2021/11/15 11:34:06;;;;;;;72.65;31.73;;;6.90;96.20;;;;;;5072650;28;20115;-61
2021/11/15 11:36:31;;;;;;;72.88;28.73;;;6.90;96.40;;;;;;5070206;28;20119;-60
2021/11/15 11:38:57;;;;;;;72.80;29.75;;;6.90;96.50;;;;;;5071681;28;20796;-60
2021/11/15 11:41:23;;;;;;;69.25;30.65;;;6.90;96.90;;;;;;5070818;28;20040;-60
2021/11/15 11:43:49;;;;;;;61.85;27.85;;;7.00;96.90;;;;;;5069481;28;20064;-60
2021/11/15 11:46:19;;;;;;;63.42;26.88;;;7.10;96.90;;;;;;5069443;28;20048;-60
2021/11/15 11:48:50;;;;;;;55.30;23.98;;;7.30;96.90;;;;;;5071310;28;20056;-60
2021/11/15 11:51:16;;;;;;;65.43;27.20;;;7.60;96.90;;;;;;5072352;28;20040;-60
2021/11/15 11:53:42;;;;;;;74.78;30.63;;;8.00;97.00;;;;;;5059558;28;20044;-59
2021/11/15 11:56:21;;;;;;;77.35;30.20;;;8.20;96.00;;;;;;5069427;28;20404;-60
2021/11/15 11:58:50;;;;;;;70.38;30.35;;;8.20;95.20;;;;;;5071876;28;20067;-60
2021/11/15 12:01:24;;;;;;;73.03;30.58;;;8.00;94.80;;;;;;5070394;28;20063;-59
2021/11/15 12:04:17;;;;;;;57.17;24.88;;;7.80;95.10;;;;;;5071404;28;20119;-59
2021/11/15 12:06:45;;;;;;;73.07;31.83;;;7.80;95.70;;;;;;5056126;28;20127;-60
2021/11/15 12:09:12;;;;;;;67.60;30.73;;;7.80;95.20;;;;;;5070563;28;20127;-59
2021/11/15 12:11:43;;;;;;;75.88;33.28;;;7.50;94.90;;;;;;5071670;28;20093;-59
2021/11/15 12:14:11;;;;;;;76.60;31.48;;;7.30;95.20;;;;;;5072041;28;20035;-59
2021/11/15 12:17:00;;;;;;;73.32;32.17;;;7.20;95.50;;;;;;5068348;28;20039;-58
2021/11/15 12:19:49;;;;;;;75.30;32.38;;;7.20;95.70;;;;;;5086745;28;20071;-59
2021/11/15 12:22:21;;;;;;;69.65;30.90;;;7.20;95.60;;;;;;5070460;28;20076;-59
2021/11/15 12:25:05;;;;;;;57.40;26.35;;;7.20;96.00;;;;;;5057946;28;20814;-64
2021/11/15 12:27:37;;;;;;;62.25;28.83;;;7.30;95.90;;;;;;5062131;28;20082;-65
2021/11/15 12:30:17;;;;;;;62.40;30.27;;;7.40;96.20;;;;;;5058824;28;20051;-65
2021/11/15 12:33:15;;;;;;;66.35;31.33;;;7.60;95.50;;;;;;5085321;28;20032;-65
2021/11/15 12:35:58;;;;;;;70.55;29.95;;;7.60;95.00;;;;;;5071515;28;20496;-65
2021/11/15 12:38:54;;;;;;;71.67;32.43;;;7.40;94.20;;;;;;5068164;28;20084;-64
2021/11/15 12:41:22;;;;;;;69.97;32.83;;;7.20;94.30;;;;;;5069625;28;20301;-69
2021/11/15 12:44:20;;;;;;;70.65;31.67;;;7.10;94.70;;;;;;5069903;28;20124;-60